Villas de la Pradera, Puerto Rico
Current Conditions -  °F | °C
As of 11:50 PM on Tuesday 27 Jan 2015 (Local Time) from TJBQ Reporting Station
Broken Clouds Broken Clouds  
Wind Chill: 73°   Ceiling: 6500
Heat Index: 73°   Visibility: 10mi
Dew Point: 66°   Wind: 0mph
Humidity: 78%   Direction: NA
Pressure: 30.03"   Gusts: NA
Location:  18.3427°N, 67.2504°W
Report Text: TJBQ 280350Z 00000KT 10SM SCT045 BKN065 BKN100 23/19 A3003 RMK RWY08 ATIS H
Loading
Personal Weather Stations






























Interactive Weather Map New forecast layout! Learn more

10-Day Weather Forecast

Advertisements
Track Severe Weather on mobile